Andover, New Jersey
Current Conditions -  °F | °C
As of 11:53 AM on Wednesday 22 Oct 2014 (Local Time) from KFWN Reporting Station
Overcast Overcast  
Wind Chill: 56°   Ceiling: 1600
Heat Index: 56°   Visibility: 10mi
Dew Point: 48°   Wind: 13mph
Humidity: 75%   Direction: 40°NE
Pressure: 29.97"   Gusts: 22mph
Location:  40.99°N, 74.74°W
Report Text: KFWN 221553Z AUTO 04011G19KT 10SM OVC016 13/09 A2997 RMK AO2 SLP149 T01330089
Loading
Personal Weather Stations






























Interactive Weather Map
Tropical Storm Tracking
New forecast layout! Learn more

10-Day Weather Forecast

Advertisements
Track Severe Weather on mobile